createdAt,value
2022-10-01T00:01:10.221Z,11.30
2022-10-01T00:03:38.187Z,11.30
2022-10-01T00:06:13.432Z,11.30
2022-10-01T00:08:41.853Z,11.30
2022-10-01T00:11:26.896Z,11.30
2022-10-01T00:13:54.459Z,11.30
2022-10-01T00:16:23.753Z,11.30
2022-10-01T00:18:52.552Z,11.30
2022-10-01T00:21:21.689Z,11.30
2022-10-01T00:23:53.884Z,11.20
2022-10-01T00:26:23.323Z,11.20
2022-10-01T00:28:55.481Z,11.20
2022-10-01T00:31:22.241Z,11.20
2022-10-01T00:33:48.932Z,11.20
2022-10-01T00:36:15.560Z,11.20
2022-10-01T00:38:42.238Z,11.20
2022-10-01T00:41:10.109Z,11.20
2022-10-01T00:43:42.314Z,11.20
2022-10-01T00:46:17.976Z,11.20
2022-10-01T00:49:08.808Z,11.20
2022-10-01T00:51:43.846Z,11.20
2022-10-01T00:54:18.593Z,11.20
2022-10-01T00:56:46.750Z,11.20
2022-10-01T00:59:16.247Z,11.20
2022-10-01T01:01:43.322Z,11.20
2022-10-01T01:04:16.443Z,11.20
2022-10-01T01:06:53.640Z,11.20
2022-10-01T01:09:21.238Z,11.20
2022-10-01T01:12:33.475Z,11.20
2022-10-01T01:15:23.116Z,11.30
2022-10-01T01:18:13.908Z,11.30
2022-10-01T01:20:49.580Z,11.30
2022-10-01T01:23:16.220Z,11.30
2022-10-01T01:25:58.374Z,11.20
2022-10-01T01:28:31.618Z,11.20
2022-10-01T01:31:01.413Z,11.20
2022-10-01T01:33:31.395Z,11.20
2022-10-01T01:36:06.020Z,11.20
2022-10-01T01:38:42.702Z,11.20
2022-10-01T01:41:12.153Z,11.20
2022-10-01T01:43:44.202Z,11.20
2022-10-01T01:46:13.127Z,11.20
2022-10-01T01:48:41.852Z,11.20
2022-10-01T01:51:24.862Z,11.20
2022-10-01T01:53:51.898Z,11.20
2022-10-01T01:56:18.476Z,11.20
2022-10-01T01:58:45.677Z,11.20
2022-10-01T02:01:41.549Z,11.20
2022-10-01T02:04:25.316Z,11.20
2022-10-01T02:07:24.011Z,11.30
2022-10-01T02:10:15.320Z,11.20
2022-10-01T02:13:12.534Z,11.30
2022-10-01T02:15:48.596Z,11.30
2022-10-01T02:18:36.808Z,11.30
2022-10-01T02:21:06.508Z,11.30
2022-10-01T02:23:48.694Z,11.30
2022-10-01T02:26:20.706Z,11.30
2022-10-01T02:28:52.230Z,11.30
2022-10-01T02:31:20.640Z,11.30
2022-10-01T02:33:47.725Z,11.30
2022-10-01T02:36:16.172Z,11.30
2022-10-01T02:38:45.665Z,11.30
2022-10-01T02:41:16.405Z,11.30
2022-10-01T02:43:51.621Z,11.30
2022-10-01T02:46:28.384Z,11.40
2022-10-01T02:48:56.609Z,11.30
2022-10-01T02:51:40.106Z,11.30
2022-10-01T02:54:16.027Z,11.40
2022-10-01T02:57:01.502Z,11.40
2022-10-01T02:59:28.140Z,11.40
2022-10-01T03:01:54.932Z,11.40
2022-10-01T03:04:21.652Z,11.40
2022-10-01T03:06:48.315Z,11.40
2022-10-01T03:09:14.938Z,11.40
2022-10-01T03:11:42.392Z,11.50
2022-10-01T03:14:10.708Z,11.50
2022-10-01T03:16:37.459Z,11.50
2022-10-01T03:19:05.043Z,11.50
2022-10-01T03:21:32.016Z,11.50
2022-10-01T03:23:58.832Z,11.50
2022-10-01T03:26:25.445Z,11.60
2022-10-01T03:28:52.129Z,11.60
2022-10-01T03:31:18.796Z,11.60
2022-10-01T03:33:45.428Z,11.60
2022-10-01T03:36:12.052Z,11.60
2022-10-01T03:38:38.703Z,11.70
2022-10-01T03:41:05.486Z,11.70
2022-10-01T03:43:32.159Z,11.70
2022-10-01T03:45:58.858Z,11.70
2022-10-01T03:48:25.587Z,11.80
2022-10-01T03:50:57.290Z,11.80
2022-10-01T03:53:26.293Z,11.80
2022-10-01T03:55:53.964Z,11.80
2022-10-01T03:58:20.780Z,11.80
2022-10-01T04:00:48.226Z,11.90
2022-10-01T04:03:15.703Z,11.90
2022-10-01T04:05:44.211Z,11.90
2022-10-01T04:08:11.876Z,11.90
2022-10-01T04:10:39.152Z,11.90
2022-10-01T04:13:06.122Z,12.00
2022-10-01T04:15:33.318Z,12.00
2022-10-01T04:18:03.636Z,12.00
2022-10-01T04:20:30.895Z,12.00
2022-10-01T04:22:57.523Z,12.00
2022-10-01T04:25:24.169Z,12.00
2022-10-01T04:27:59.016Z,12.10
2022-10-01T04:30:28.968Z,12.10
2022-10-01T04:32:55.892Z,12.10
2022-10-01T04:35:22.610Z,12.10
2022-10-01T04:38:01.847Z,12.10
2022-10-01T04:40:29.436Z,12.10
2022-10-01T04:42:56.243Z,12.20
2022-10-01T04:45:23.132Z,12.20
2022-10-01T04:47:55.059Z,12.20
2022-10-01T04:50:24.175Z,12.20
2022-10-01T04:52:51.627Z,12.30
2022-10-01T04:55:19.816Z,12.30
2022-10-01T04:57:46.988Z,12.30
2022-10-01T05:00:17.157Z,12.30
2022-10-01T05:02:47.829Z,12.30
2022-10-01T05:05:15.463Z,12.30
2022-10-01T05:07:42.655Z,12.30
2022-10-01T05:10:21.541Z,12.40
2022-10-01T05:12:48.995Z,12.40
2022-10-01T05:15:17.476Z,12.40
2022-10-01T05:17:44.331Z,12.40
2022-10-01T05:20:17.092Z,12.40
2022-10-01T05:22:44.975Z,12.50
2022-10-01T05:25:11.741Z,12.50
2022-10-01T05:27:40.925Z,12.50
2022-10-01T05:30:10.495Z,12.50
2022-10-01T05:32:37.684Z,12.50
2022-10-01T05:35:06.300Z,12.50
2022-10-01T05:37:33.696Z,12.40
2022-10-01T05:40:00.856Z,12.40
2022-10-01T05:42:27.554Z,12.40
2022-10-01T05:44:54.233Z,12.40
2022-10-01T05:47:21.432Z,12.30
2022-10-01T05:49:48.064Z,12.30
2022-10-01T05:52:16.440Z,12.20
2022-10-01T05:54:43.441Z,12.20
2022-10-01T05:57:10.527Z,12.30
2022-10-01T05:59:37.153Z,12.20
2022-10-01T06:02:04.356Z,12.20
2022-10-01T06:04:31.322Z,12.20
2022-10-01T06:06:58.079Z,12.20
2022-10-01T06:09:24.737Z,12.20
2022-10-01T06:11:51.364Z,12.20
2022-10-01T06:14:18.339Z,12.20
2022-10-01T06:16:44.977Z,12.20
2022-10-01T06:19:11.642Z,12.30
2022-10-01T06:21:38.276Z,12.30
2022-10-01T06:24:05.706Z,12.30
2022-10-01T06:26:32.363Z,12.30
2022-10-01T06:28:59.000Z,12.40
2022-10-01T06:31:25.793Z,12.40
2022-10-01T06:33:52.537Z,12.40
2022-10-01T06:36:19.188Z,12.50
2022-10-01T06:38:48.685Z,12.50
2022-10-01T06:41:15.357Z,12.50
2022-10-01T06:43:41.996Z,12.60
2022-10-01T06:46:08.854Z,12.80
2022-10-01T06:48:36.494Z,13.00
2022-10-01T06:51:03.928Z,13.20
2022-10-01T06:53:30.774Z,13.40
2022-10-01T06:55:57.874Z,13.60
2022-10-01T06:58:28.226Z,13.70
2022-10-01T07:01:03.734Z,13.70
2022-10-01T07:03:31.105Z,13.60
2022-10-01T07:06:03.145Z,13.50
2022-10-01T07:08:30.130Z,13.60
2022-10-01T07:11:04.885Z,13.70
2022-10-01T07:13:31.922Z,13.80
2022-10-01T07:15:58.544Z,13.90
2022-10-01T07:18:25.221Z,14.10
2022-10-01T07:20:51.906Z,14.20
2022-10-01T07:23:18.599Z,14.20
2022-10-01T07:25:45.898Z,14.20
2022-10-01T07:28:18.911Z,14.20
2022-10-01T07:30:56.297Z,14.20
2022-10-01T07:33:22.957Z,14.20
2022-10-01T07:35:49.634Z,14.10
2022-10-01T07:38:16.558Z,14.10
2022-10-01T07:40:43.174Z,14.00
2022-10-01T07:43:10.328Z,13.90
2022-10-01T07:45:37.078Z,13.90
2022-10-01T07:48:04.235Z,14.00
2022-10-01T07:50:30.914Z,14.00
2022-10-01T07:52:58.869Z,14.10
2022-10-01T07:55:27.582Z,14.10
2022-10-01T07:57:56.435Z,14.20
2022-10-01T08:00:24.964Z,14.30
2022-10-01T08:02:53.812Z,14.50
2022-10-01T08:05:25.918Z,14.60
2022-10-01T08:07:53.906Z,14.60
2022-10-01T08:10:23.201Z,14.60
2022-10-01T08:12:50.111Z,14.60
2022-10-01T08:15:18.111Z,14.60
2022-10-01T08:17:45.297Z,14.60
2022-10-01T08:20:13.651Z,14.60
2022-10-01T08:22:42.302Z,14.70
2022-10-01T08:25:09.462Z,14.70
2022-10-01T08:27:36.777Z,14.80
2022-10-01T08:30:03.885Z,14.90
2022-10-01T08:32:31.069Z,14.90
2022-10-01T08:34:59.804Z,15.00
2022-10-01T08:37:27.764Z,14.90
2022-10-01T08:39:55.375Z,14.80
2022-10-01T08:42:25.101Z,14.80
2022-10-01T08:44:53.161Z,14.90
2022-10-01T08:47:31.088Z,15.20
2022-10-01T08:50:11.755Z,15.50
2022-10-01T08:52:47.867Z,15.60
2022-10-01T08:55:19.433Z,15.50
2022-10-01T08:57:51.867Z,15.50
2022-10-01T09:00:19.699Z,15.50
2022-10-01T09:02:47.715Z,15.30
2022-10-01T09:05:34.259Z,15.20
2022-10-01T09:08:43.666Z,15.10
2022-10-01T09:11:27.227Z,15.10
2022-10-01T09:14:43.493Z,15.00
2022-10-01T09:17:12.780Z,15.00
2022-10-01T09:19:59.884Z,15.00
2022-10-01T09:22:41.192Z,15.10
2022-10-01T09:25:26.981Z,15.20
2022-10-01T09:28:15.478Z,15.30
2022-10-01T09:30:57.199Z,15.40
2022-10-01T09:33:33.151Z,15.60
2022-10-01T09:36:10.829Z,15.80
2022-10-01T09:38:42.900Z,15.70
2022-10-01T09:41:11.568Z,15.70
2022-10-01T09:43:40.541Z,15.60
2022-10-01T09:46:13.451Z,15.70
2022-10-01T09:49:01.871Z,15.80
2022-10-01T09:51:46.111Z,16.00
2022-10-01T09:54:39.814Z,16.10
2022-10-01T09:57:11.044Z,16.30
2022-10-01T09:59:50.405Z,16.50
2022-10-01T10:02:26.823Z,16.60
2022-10-01T10:05:13.504Z,16.50
2022-10-01T10:07:43.845Z,16.20
2022-10-01T10:10:25.457Z,16.00
2022-10-01T10:13:00.728Z,15.70
2022-10-01T10:15:31.221Z,15.60
2022-10-01T10:18:08.006Z,15.60
2022-10-01T10:20:40.310Z,15.70
2022-10-01T10:23:26.708Z,15.70
2022-10-01T10:26:02.678Z,15.70
2022-10-01T10:28:44.593Z,15.70
2022-10-01T10:31:22.396Z,15.50
2022-10-01T10:33:58.267Z,15.40
2022-10-01T10:36:30.834Z,15.40
2022-10-01T10:38:58.903Z,15.50
2022-10-01T10:41:27.409Z,15.50
2022-10-01T10:44:12.978Z,15.70
2022-10-01T10:46:44.001Z,16.10
2022-10-01T10:49:21.159Z,16.40
2022-10-01T10:51:55.594Z,16.60
2022-10-01T10:54:25.027Z,16.70
2022-10-01T10:57:02.114Z,16.90
2022-10-01T10:59:33.600Z,17.20
2022-10-01T11:02:04.429Z,17.20
2022-10-01T11:04:41.660Z,17.10
2022-10-01T11:07:10.932Z,17.10
2022-10-01T11:10:04.242Z,17.10
2022-10-01T11:12:43.843Z,17.00
2022-10-01T11:15:19.444Z,16.90
2022-10-01T11:17:51.889Z,16.90
2022-10-01T11:20:20.818Z,16.90
2022-10-01T11:23:00.778Z,16.80
2022-10-01T11:25:36.568Z,16.60
2022-10-01T11:28:12.488Z,16.50
2022-10-01T11:31:06.377Z,16.30
2022-10-01T11:34:03.986Z,16.10
2022-10-01T11:36:45.226Z,16.00
2022-10-01T11:39:17.365Z,16.00
2022-10-01T11:41:58.362Z,16.00
2022-10-01T11:44:40.876Z,16.00
2022-10-01T11:47:14.008Z,16.20
2022-10-01T11:49:46.769Z,16.50
2022-10-01T11:52:23.434Z,17.00
2022-10-01T11:55:20.451Z,17.40
2022-10-01T11:58:11.772Z,17.50
2022-10-01T12:00:40.145Z,17.30
2022-10-01T12:03:15.522Z,17.20
2022-10-01T12:05:43.044Z,17.10
2022-10-01T12:08:24.195Z,17.00
2022-10-01T12:10:58.723Z,17.10
2022-10-01T12:13:34.147Z,17.40
2022-10-01T12:16:11.922Z,18.10
2022-10-01T12:19:00.827Z,18.50
2022-10-01T12:21:33.313Z,18.70
2022-10-01T12:24:15.519Z,19.50
2022-10-01T12:26:59.298Z,20.60
2022-10-01T12:29:57.844Z,21.60
2022-10-01T12:32:45.837Z,22.30
2022-10-01T12:35:36.293Z,21.80
2022-10-01T12:38:13.969Z,21.90
2022-10-01T12:40:53.889Z,21.50
2022-10-01T12:43:27.483Z,21.10
2022-10-01T12:46:04.440Z,20.50
2022-10-01T12:48:51.558Z,19.80
2022-10-01T12:51:56.953Z,19.60
2022-10-01T12:54:46.083Z,20.70
2022-10-01T12:57:15.681Z,22.10
2022-10-01T13:00:08.839Z,22.50
2022-10-01T13:02:41.777Z,22.00
2022-10-01T13:05:16.297Z,21.20
2022-10-01T13:08:02.422Z,20.30
2022-10-01T13:10:50.382Z,19.70
2022-10-01T13:13:27.675Z,19.20
2022-10-01T13:16:16.786Z,19.10
2022-10-01T13:19:04.436Z,18.90
2022-10-01T13:21:53.256Z,18.50
2022-10-01T13:24:50.967Z,18.40
2022-10-01T13:27:33.532Z,19.50
2022-10-01T13:30:13.727Z,19.80
2022-10-01T13:32:55.150Z,19.70
2022-10-01T13:35:35.203Z,20.30
2022-10-01T13:38:13.419Z,20.50
2022-10-01T13:40:40.520Z,20.40
2022-10-01T13:43:16.248Z,20.00
2022-10-01T13:45:48.069Z,19.30
2022-10-01T13:48:29.146Z,18.70
2022-10-01T13:51:03.284Z,18.30
2022-10-01T13:53:43.476Z,18.20
2022-10-01T13:56:13.012Z,18.60
2022-10-01T13:58:42.005Z,19.30
2022-10-01T14:01:42.099Z,19.70
2022-10-01T14:04:26.533Z,19.50
2022-10-01T14:06:58.566Z,19.10
2022-10-01T14:09:36.384Z,19.10
2022-10-01T14:12:26.217Z,19.20
2022-10-01T14:15:15.639Z,19.40
2022-10-01T14:17:44.369Z,19.70
2022-10-01T14:20:37.507Z,20.20
2022-10-01T14:23:13.709Z,20.70
2022-10-01T14:25:58.219Z,21.00
2022-10-01T14:28:30.832Z,21.00
2022-10-01T14:31:22.306Z,21.00
2022-10-01T14:34:10.671Z,20.80
2022-10-01T14:36:44.011Z,20.40
2022-10-01T14:39:19.895Z,20.00
2022-10-01T14:41:49.237Z,19.50
2022-10-01T14:44:36.282Z,18.60
2022-10-01T14:47:12.805Z,17.80
2022-10-01T14:49:39.450Z,17.30
2022-10-01T14:52:15.657Z,17.40
2022-10-01T14:54:52.907Z,17.40
2022-10-01T14:57:35.786Z,17.10
2022-10-01T15:00:10.286Z,16.90
2022-10-01T15:02:46.411Z,16.60
2022-10-01T15:05:22.025Z,16.40
2022-10-01T15:07:48.773Z,16.30
2022-10-01T15:10:19.834Z,16.20
2022-10-01T15:12:49.431Z,16.50
2022-10-01T15:15:22.058Z,17.20
2022-10-01T15:17:49.781Z,17.70
2022-10-01T15:20:17.392Z,18.10
2022-10-01T15:22:46.925Z,18.10
2022-10-01T15:25:21.613Z,18.00
2022-10-01T15:27:49.228Z,18.10
2022-10-01T15:30:18.263Z,18.20
2022-10-01T15:32:48.094Z,19.10
2022-10-01T15:35:19.720Z,20.70
2022-10-01T15:37:50.289Z,22.30
2022-10-01T15:40:25.160Z,22.60
2022-10-01T15:43:21.633Z,21.70
2022-10-01T15:46:15.965Z,20.70
2022-10-01T15:48:42.955Z,20.00
2022-10-01T15:51:16.862Z,19.40
2022-10-01T15:53:44.738Z,18.90
2022-10-01T15:56:15.586Z,18.40
2022-10-01T15:58:52.967Z,18.00
2022-10-01T16:01:29.988Z,17.80
2022-10-01T16:04:05.152Z,17.70
2022-10-01T16:06:39.483Z,17.70
2022-10-01T16:09:16.171Z,17.50
2022-10-01T16:11:59.513Z,17.30
2022-10-01T16:14:30.633Z,17.10
2022-10-01T16:17:19.561Z,16.70
2022-10-01T16:19:56.641Z,16.50
2022-10-01T16:22:33.375Z,16.40
2022-10-01T16:25:07.138Z,16.20
2022-10-01T16:27:44.982Z,16.20
2022-10-01T16:30:26.923Z,16.10
2022-10-01T16:33:02.248Z,16.00
2022-10-01T16:35:32.535Z,15.90
2022-10-01T16:37:59.512Z,15.80
2022-10-01T16:40:30.341Z,15.70
2022-10-01T16:42:59.136Z,15.70
2022-10-01T16:45:32.501Z,15.70
2022-10-01T16:48:00.516Z,15.70
2022-10-01T16:50:27.178Z,15.60
2022-10-01T16:52:55.750Z,15.60
2022-10-01T16:55:25.232Z,15.60
2022-10-01T16:57:55.115Z,15.70
2022-10-01T17:00:23.983Z,15.70
2022-10-01T17:02:50.769Z,15.70
2022-10-01T17:05:19.011Z,15.70
2022-10-01T17:07:46.017Z,15.60
2022-10-01T17:10:13.907Z,15.50
2022-10-01T17:12:41.156Z,15.40
2022-10-01T17:15:08.374Z,15.40
2022-10-01T17:17:35.114Z,15.30
2022-10-01T17:20:01.764Z,15.20
2022-10-01T17:22:28.979Z,15.20
2022-10-01T17:24:55.622Z,15.10
2022-10-01T17:27:22.279Z,15.10
2022-10-01T17:29:48.902Z,15.00
2022-10-01T17:32:18.642Z,14.90
2022-10-01T17:34:45.774Z,14.80
2022-10-01T17:37:12.823Z,14.80
2022-10-01T17:39:42.119Z,14.70
2022-10-01T17:42:12.623Z,14.60
2022-10-01T17:44:39.244Z,14.50
2022-10-01T17:47:05.897Z,14.40
2022-10-01T17:49:32.520Z,14.30
2022-10-01T17:51:59.196Z,14.30
2022-10-01T17:54:26.049Z,14.20
2022-10-01T17:56:53.189Z,14.10
2022-10-01T17:59:19.844Z,14.10
2022-10-01T18:01:46.732Z,14.00
2022-10-01T18:04:13.412Z,14.00
2022-10-01T18:06:41.057Z,13.90
2022-10-01T18:09:07.777Z,13.90
2022-10-01T18:11:34.417Z,13.80
2022-10-01T18:14:01.064Z,13.80
2022-10-01T18:16:27.827Z,13.70
2022-10-01T18:21:45.847Z,13.70
2022-10-01T18:24:12.424Z,13.60
2022-10-01T18:26:39.402Z,13.70
2022-10-01T18:29:06.350Z,13.60
2022-10-01T18:31:41.334Z,13.60
2022-10-01T18:34:20.172Z,13.60
2022-10-01T18:36:49.869Z,13.60
2022-10-01T18:39:25.769Z,13.50
2022-10-01T18:41:53.187Z,13.50
2022-10-01T18:44:20.886Z,13.60
2022-10-01T18:46:50.343Z,13.60
2022-10-01T18:50:02.436Z,13.60
2022-10-01T18:52:47.116Z,13.60
2022-10-01T18:55:30.440Z,13.50
2022-10-01T18:58:45.120Z,13.50
2022-10-01T19:01:30.693Z,13.50
2022-10-01T19:04:13.829Z,13.50
2022-10-01T19:06:52.453Z,13.50
2022-10-01T19:09:46.908Z,13.40
2022-10-01T19:12:41.015Z,13.40
2022-10-01T19:15:50.210Z,13.40
2022-10-01T19:18:29.244Z,13.40
2022-10-01T19:21:26.350Z,13.30
2022-10-01T19:24:04.755Z,13.30
2022-10-01T19:26:36.815Z,13.30
2022-10-01T19:29:29.368Z,13.30
2022-10-01T19:32:03.678Z,13.30
2022-10-01T19:34:45.568Z,13.30
2022-10-01T19:37:25.848Z,13.40
2022-10-01T19:39:56.029Z,13.40
2022-10-01T19:42:29.223Z,13.40
2022-10-01T19:45:02.300Z,13.40
2022-10-01T19:47:31.694Z,13.50
2022-10-01T19:50:02.720Z,13.50
2022-10-01T19:52:35.182Z,13.50
2022-10-01T19:55:01.868Z,13.50
2022-10-01T19:57:30.404Z,13.60
2022-10-01T20:00:10.310Z,13.60
2022-10-01T20:03:09.622Z,13.50
2022-10-01T20:05:48.640Z,13.50
2022-10-01T20:08:29.083Z,13.50
2022-10-01T20:11:15.751Z,13.50
2022-10-01T20:14:00.949Z,13.40
2022-10-01T20:16:40.550Z,13.40
2022-10-01T20:19:16.362Z,13.40
2022-10-01T20:21:54.144Z,13.40
2022-10-01T20:24:47.787Z,13.40
2022-10-01T20:27:20.007Z,13.40
2022-10-01T20:29:52.274Z,13.30
2022-10-01T20:32:46.532Z,13.30
2022-10-01T20:35:23.888Z,13.20
2022-10-01T20:38:13.064Z,13.20
2022-10-01T20:40:49.576Z,13.20
2022-10-01T20:43:21.487Z,13.10
2022-10-01T20:45:51.854Z,13.10
2022-10-01T20:48:39.112Z,13.10
2022-10-01T20:51:12.127Z,13.10
2022-10-01T20:53:46.567Z,13.00
2022-10-01T20:56:23.423Z,13.00
2022-10-01T20:59:01.959Z,13.00
2022-10-01T21:01:33.316Z,12.90
2022-10-01T21:04:18.205Z,12.90
2022-10-01T21:06:53.423Z,12.90
2022-10-01T21:09:32.742Z,12.80
2022-10-01T21:12:10.233Z,12.80
2022-10-01T21:14:49.677Z,12.80
2022-10-01T21:17:57.771Z,12.80
2022-10-01T21:20:43.981Z,12.70
2022-10-01T21:23:13.609Z,12.70
2022-10-01T21:26:05.019Z,12.70
2022-10-01T21:28:43.669Z,12.70
2022-10-01T21:31:13.379Z,12.60
2022-10-01T21:34:23.489Z,12.60
2022-10-01T21:36:55.391Z,12.60
2022-10-01T21:39:39.774Z,12.60
2022-10-01T21:42:16.198Z,12.60
2022-10-01T21:45:20.704Z,12.60
2022-10-01T21:47:58.811Z,12.60
2022-10-01T21:51:13.397Z,12.60
2022-10-01T21:54:21.879Z,12.60
2022-10-01T21:57:02.115Z,12.60
2022-10-01T22:00:18.664Z,12.50
2022-10-01T22:03:04.795Z,12.60
2022-10-01T22:06:07.049Z,12.60
2022-10-01T22:08:55.025Z,12.60
2022-10-01T22:11:26.063Z,12.60
2022-10-01T22:13:58.864Z,12.60
2022-10-01T22:16:31.575Z,12.60
2022-10-01T22:19:11.244Z,12.60
2022-10-01T22:21:42.555Z,12.60
2022-10-01T22:24:16.548Z,12.60
2022-10-01T22:26:59.669Z,12.70
2022-10-01T22:29:29.590Z,12.70
2022-10-01T22:32:01.087Z,12.70
2022-10-01T22:34:38.772Z,12.80
2022-10-01T22:37:16.740Z,12.90
2022-10-01T22:39:50.109Z,13.00
2022-10-01T22:42:23.380Z,13.00
2022-10-01T22:44:49.991Z,13.10
2022-10-01T22:47:28.068Z,13.10
2022-10-01T22:49:54.640Z,13.10
2022-10-01T22:52:59.836Z,13.20
2022-10-01T22:55:53.690Z,13.20
2022-10-01T22:58:52.793Z,13.30
2022-10-01T23:01:28.055Z,13.30
2022-10-01T23:04:10.477Z,13.40
2022-10-01T23:06:52.875Z,13.40
2022-10-01T23:09:30.551Z,13.40
2022-10-01T23:12:04.643Z,13.40
2022-10-01T23:14:49.836Z,13.40
2022-10-01T23:17:33.514Z,13.40
2022-10-01T23:20:03.192Z,13.40
2022-10-01T23:22:41.729Z,13.30
2022-10-01T23:25:28.529Z,13.30
2022-10-01T23:28:28.839Z,13.30
2022-10-01T23:31:20.250Z,13.30
2022-10-01T23:33:58.995Z,13.30
2022-10-01T23:37:00.996Z,13.30
2022-10-01T23:39:45.498Z,13.20
2022-10-01T23:42:30.851Z,13.20
2022-10-01T23:45:15.848Z,13.20
2022-10-01T23:48:05.490Z,13.20
2022-10-01T23:50:49.558Z,13.20
2022-10-01T23:53:34.041Z,13.20
2022-10-01T23:56:21.657Z,13.20
2022-10-01T23:59:04.368Z,13.20
